Time;durP1;ratioP1;P1;durP2;ratioP2;P2;SDS_P1;SDS_P2;PMS_P1;PMS_P2;Temp;Humidity;BMP_temperature;BMP_pressure;BME280_temperature;BME280_humidity;BME280_pressure;Samples;Min_cycle;Max_cycle;Signal;HPM_P1;HPM_P2
2021/12/21 00:00:51;;;;;;;18.13;7.22;;;;;;;2.71;78.94;102710.25;5035379;28;20415;-43
2021/12/21 00:03:18;;;;;;;15.73;7.05;;;;;;;2.64;79.19;102712.75;5035584;28;20045;-43
2021/12/21 00:05:47;;;;;;;16.48;7.15;;;;;;;2.58;79.43;102715.31;5035354;28;20073;-44
2021/12/21 00:08:16;;;;;;;18.70;7.47;;;;;;;2.55;79.78;102714.63;5035231;28;20122;-43
2021/12/21 00:11:04;;;;;;;17.88;7.88;;;;;;;2.60;79.82;102718.63;5035415;28;20045;-48
2021/12/21 00:16:11;;;;;;;20.15;8.20;;;;;;;2.42;79.95;102708.88;5035230;28;20049;-48
2021/12/21 00:21:24;;;;;;;19.98;7.93;;;;;;;2.40;80.82;102710.91;5034264;28;20091;-52
2021/12/21 00:23:58;;;;;;;;;;;;;;;2.40;80.71;102704.69;5035663;28;20056;-44
2021/12/21 00:26:25;;;;;;;18.00;8.10;;;;;;;2.42;80.53;102714.28;5035494;28;19921;-44
2021/12/21 00:31:25;;;;;;;17.00;7.95;;;;;;;2.29;80.63;102687.88;5036556;28;20045;-49
2021/12/21 00:33:53;;;;;;;15.10;7.38;;;;;;;2.30;81.09;102688.72;5036367;28;20045;-49
2021/12/21 00:36:23;;;;;;;17.90;7.57;;;;;;;2.33;81.47;102689.22;5035645;28;20029;-51
2021/12/21 00:38:53;;;;;;;18.40;7.70;;;;;;;2.35;80.37;102689.03;5036250;28;20067;-49
2021/12/21 00:41:21;;;;;;;15.25;7.30;;;;;;;2.27;81.03;102689.06;5037896;28;20037;-47
2021/12/21 00:43:49;;;;;;;16.05;7.53;;;;;;;2.17;81.24;102681.16;5038672;28;20443;-50
2021/12/21 00:46:17;;;;;;;18.27;8.05;;;;;;;2.16;82.06;102687.50;5050876;28;20102;-51
2021/12/21 00:48:54;;;;;;;17.67;8.20;;;;;;;2.20;82.05;102683.50;5038572;28;20064;-52
2021/12/21 00:51:25;;;;;;;18.48;8.13;;;;;;;2.29;81.89;102687.03;5054931;28;20041;-49
2021/12/21 00:53:53;;;;;;;16.83;7.60;;;;;;;2.26;81.62;102685.53;5043454;28;20048;-50
2021/12/21 00:56:21;;;;;;;15.98;7.60;;;;;;;2.26;81.70;102682.84;5049964;28;20397;-51
2021/12/21 00:58:48;;;;;;;18.25;7.65;;;;;;;2.26;81.49;102685.53;5035041;28;20061;-52
2021/12/21 01:01:16;;;;;;;19.20;8.85;;;;;;;2.23;81.55;102687.69;5034287;28;20411;-48
2021/12/21 01:03:46;;;;;;;19.10;7.88;;;;;;;2.22;81.89;102686.03;5033449;28;20491;-45
2021/12/21 01:06:27;;;;;;;19.08;8.75;;;;;;;2.25;82.01;102685.69;5051868;28;20047;-53
2021/12/21 01:09:09;;;;;;;18.00;8.00;;;;;;;2.26;81.96;102692.72;5053081;28;20091;-49
2021/12/21 01:11:52;;;;;;;25.05;8.98;;;;;;;2.25;81.82;102691.06;5052521;28;20045;-47
2021/12/21 01:17:01;;;;;;;18.63;8.50;;;;;;;2.10;82.00;102686.34;5051055;28;20045;-49
2021/12/21 01:19:43;;;;;;;19.77;8.32;;;;;;;2.08;82.15;102685.66;5054292;28;20045;-47
2021/12/21 01:25:12;;;;;;;18.45;8.32;;;;;;;2.10;82.61;102688.19;5035631;28;20037;-52
2021/12/21 01:30:20;;;;;;;19.20;9.00;;;;;;;2.27;82.48;102680.97;5054080;28;20040;-46
2021/12/21 01:33:07;;;;;;;18.52;7.82;;;;;;;2.31;82.46;102685.03;5041736;28;20056;-48
2021/12/21 01:35:36;;;;;;;20.13;8.20;;;;;;;2.37;81.81;102687.03;5048089;28;20475;-47
2021/12/21 01:38:21;;;;;;;14.20;8.15;;;;;;;2.34;81.42;102676.63;5033926;28;20407;-46
2021/12/21 01:40:57;;;;;;;17.90;8.00;;;;;;;2.33;81.56;102677.59;5038920;28;20372;-49
2021/12/21 01:51:51;;;;;;;18.00;8.52;;;;;;;2.36;81.05;102669.22;4992725;28;19921;-47
2021/12/21 01:54:18;;;;;;;15.30;7.78;;;;;;;2.40;80.97;102673.25;5011615;28;20046;-47
2021/12/21 01:56:46;;;;;;;17.15;8.32;;;;;;;2.34;80.05;102682.00;5009119;28;20042;-47
2021/12/21 01:59:14;;;;;;;20.33;8.95;;;;;;;2.25;80.26;102680.31;4995449;28;20057;-48
2021/12/21 02:01:42;;;;;;;19.08;8.40;;;;;;;2.19;80.96;102680.97;4994966;28;20042;-53
2021/12/21 02:04:14;;;;;;;20.63;8.48;;;;;;;2.10;81.54;102672.91;5011588;28;20054;-48
2021/12/21 02:06:42;;;;;;;19.73;8.40;;;;;;;2.05;81.17;102669.88;5000379;28;20373;-48
2021/12/21 02:09:10;;;;;;;18.15;8.30;;;;;;;1.97;81.41;102667.16;5011095;28;20053;-44
2021/12/21 02:11:38;;;;;;;21.73;8.23;;;;;;;1.84;82.00;102664.94;5002697;28;20042;-49
2021/12/21 02:14:09;;;;;;;19.45;8.70;;;;;;;1.86;82.90;102656.72;4998336;28;20123;-49
2021/12/21 02:19:38;;;;;;;20.02;8.50;;;;;;;1.98;81.78;102649.19;4952751;29;20101;-51
2021/12/21 02:22:19;;;;;;;16.30;7.85;;;;;;;1.95;82.16;102642.31;4943149;28;20105;-48
2021/12/21 02:25:34;;;;;;;18.40;8.18;;;;;;;1.98;82.19;102644.66;5002596;28;20042;-48
2021/12/21 02:27:53;;;;;;;17.02;8.52;;;;;;;2.02;82.40;102648.69;5002452;28;20516;-48
2021/12/21 02:30:21;;;;;;;17.02;8.43;;;;;;;2.04;81.92;102649.34;4997881;28;20485;-47
2021/12/21 02:32:50;;;;;;;16.85;7.65;;;;;;;2.07;81.30;102650.88;5007852;28;20053;-48
2021/12/21 02:35:18;;;;;;;18.80;8.40;;;;;;;2.00;80.53;102649.88;4997789;28;20045;-45
2021/12/21 02:37:46;;;;;;;19.45;8.55;;;;;;;1.87;81.09;102651.16;5002093;28;20123;-47
2021/12/21 02:40:14;;;;;;;21.67;8.45;;;;;;;1.85;81.55;102655.03;5008837;28;20520;-46
2021/12/21 02:42:41;;;;;;;17.08;8.00;;;;;;;1.87;81.58;102650.34;5009209;28;20103;-48
2021/12/21 02:45:11;;;;;;;15.30;8.23;;;;;;;1.87;81.61;102650.34;5010960;28;20092;-48
2021/12/21 02:47:39;;;;;;;19.48;8.13;;;;;;;1.84;80.75;102650.66;5008864;28;20582;-47
2021/12/21 02:50:08;;;;;;;18.33;8.10;;;;;;;1.73;81.67;102645.59;5010198;28;20046;-47
2021/12/21 02:52:36;;;;;;;19.58;8.00;;;;;;;1.71;81.55;102637.72;5008046;28;20046;-45
2021/12/21 02:55:05;;;;;;;15.93;8.23;;;;;;;1.75;82.31;102638.22;4996977;28;20046;-48
2021/12/21 02:57:33;;;;;;;16.10;7.50;;;;;;;1.83;82.30;102644.47;5047249;28;20111;-49
2021/12/21 03:00:02;;;;;;;17.90;8.00;;;;;;;1.90;81.70;102633.88;5045231;28;20095;-47
2021/12/21 03:02:31;;;;;;;17.55;8.32;;;;;;;1.94;81.39;102634.41;5032435;28;20053;-44
2021/12/21 03:04:59;;;;;;;16.30;7.97;;;;;;;1.94;81.16;102640.59;5032301;28;20049;-47
2021/12/21 03:10:11;;;;;;;17.73;8.40;;;;;;;1.90;80.97;102633.88;5033827;28;20067;-49
2021/12/21 03:15:23;;;;;;;16.50;8.20;;;;;;;1.86;80.58;102633.38;5033478;28;20038;-47
2021/12/21 03:17:52;;;;;;;17.20;8.68;;;;;;;1.77;80.71;102637.03;5032460;28;20053;-50
2021/12/21 03:20:20;;;;;;;17.70;8.80;;;;;;;1.66;80.99;102635.53;5033534;28;20052;-48
2021/12/21 03:22:49;;;;;;;17.20;8.32;;;;;;;1.58;81.55;102624.75;5044739;28;20106;-47
2021/12/21 03:25:17;;;;;;;17.77;8.48;;;;;;;1.59;81.67;102631.81;5055847;28;20043;-50
2021/12/21 03:27:45;;;;;;;16.08;7.88;;;;;;;1.58;81.77;102635.50;5043922;28;20037;-48
2021/12/21 03:30:14;;;;;;;16.75;7.80;;;;;;;1.55;82.03;102635.00;5037339;28;20450;-46
2021/12/21 03:32:42;;;;;;;17.38;8.07;;;;;;;1.54;81.97;102634.16;5049503;28;20097;-48
2021/12/21 03:35:10;;;;;;;17.52;8.85;;;;;;;1.56;82.26;102634.81;5051847;28;20049;-48
2021/12/21 03:37:38;;;;;;;16.92;8.40;;;;;;;1.62;81.90;102636.84;5044438;28;20037;-49
2021/12/21 03:40:07;;;;;;;18.88;8.18;;;;;;;1.58;81.34;102635.50;5056274;28;20499;-47
2021/12/21 03:42:35;;;;;;;15.77;7.82;;;;;;;1.50;81.69;102627.41;5039326;28;20045;-48
2021/12/21 03:45:03;;;;;;;16.55;7.40;;;;;;;1.50;82.10;102630.09;5035913;28;20042;-47
2021/12/21 03:47:31;;;;;;;17.33;8.05;;;;;;;1.56;82.14;102636.66;5036192;28;20046;-47
2021/12/21 03:50:02;;;;;;;18.23;8.23;;;;;;;1.60;82.14;102622.72;5036364;28;20091;-47
2021/12/21 03:52:29;;;;;;;14.48;7.57;;;;;;;1.66;81.82;102616.72;5035537;28;20351;-45
2021/12/21 03:55:02;;;;;;;18.52;8.00;;;;;;;1.67;81.27;102623.75;5035385;28;20049;-47
2021/12/21 03:57:29;;;;;;;19.80;8.35;;;;;;;1.60;80.87;102627.28;5035868;28;20045;-45
2021/12/21 03:59:58;;;;;;;16.85;8.10;;;;;;;1.50;81.58;102619.34;5036039;28;20064;-46
2021/12/21 04:02:27;;;;;;;17.77;8.02;;;;;;;1.53;81.81;102627.09;5035528;28;20041;-44
2021/12/21 04:04:58;;;;;;;17.17;8.30;;;;;;;1.58;81.81;102632.78;5035896;28;20057;-43
2021/12/21 04:07:27;;;;;;;16.05;8.43;;;;;;;1.59;81.34;102629.13;5035638;28;20069;-45
2021/12/21 04:09:56;;;;;;;18.63;8.45;;;;;;;1.57;81.25;102622.25;5035346;28;20050;-45
2021/12/21 04:12:24;;;;;;;16.85;8.20;;;;;;;1.58;81.45;102624.75;5035302;28;20057;-47
2021/12/21 04:14:53;;;;;;;19.27;7.97;;;;;;;1.62;81.12;102628.78;5035243;28;20042;-50
2021/12/21 04:17:24;;;;;;;18.83;9.02;;;;;;;1.62;80.74;102625.28;5035500;28;20049;-44
2021/12/21 04:19:52;;;;;;;16.40;7.93;;;;;;;1.61;80.46;102619.06;5035547;28;20125;-46
2021/12/21 04:22:20;;;;;;;19.67;8.25;;;;;;;1.56;80.42;102624.06;5034816;28;20049;-48
2021/12/21 04:24:48;;;;;;;18.33;7.95;;;;;;;1.55;80.42;102622.38;5035438;28;20049;-50
2021/12/21 04:27:17;;;;;;;16.25;8.05;;;;;;;1.53;80.06;102619.03;5035402;28;20038;-46
2021/12/21 04:29:45;;;;;;;16.95;8.10;;;;;;;1.46;80.30;102616.13;5034925;28;20064;-48
2021/12/21 04:32:13;;;;;;;17.02;7.35;;;;;;;1.43;80.45;102618.31;5034855;28;20053;-48
2021/12/21 04:34:42;;;;;;;16.55;7.65;;;;;;;1.43;80.94;102621.84;5034671;28;20045;-48
2021/12/21 04:37:12;;;;;;;17.75;8.63;;;;;;;1.47;80.99;102617.00;5034032;28;20053;-50
2021/12/21 04:39:51;;;;;;;17.10;7.57;;;;;;;1.53;81.05;102610.13;5035250;28;20062;-48
2021/12/21 04:42:19;;;;;;;15.60;8.10;;;;;;;1.55;80.55;102613.50;5040664;28;20036;-46
2021/12/21 04:44:46;;;;;;;19.70;7.82;;;;;;;1.56;80.59;102613.31;5054436;28;20394;-45
2021/12/21 04:47:14;;;;;;;15.60;8.02;;;;;;;1.55;80.37;102606.28;5053228;28;20415;-46
2021/12/21 04:49:42;;;;;;;18.75;8.00;;;;;;;1.52;79.79;102609.28;5045371;28;20049;-46
2021/12/21 04:52:10;;;;;;;17.88;8.68;;;;;;;1.47;79.97;102611.63;5035585;28;20114;-47
2021/12/21 04:54:39;;;;;;;17.02;7.95;;;;;;;1.39;79.79;102620.47;5035928;28;20038;-45
2021/12/21 04:57:07;;;;;;;18.45;8.25;;;;;;;1.28;80.35;102610.06;5034909;28;20034;-48
2021/12/21 04:59:35;;;;;;;18.98;8.48;;;;;;;1.16;80.71;102609.50;5050035;28;20056;-47
2021/12/21 05:02:03;;;;;;;18.83;8.45;;;;;;;1.09;81.42;102603.09;5054450;28;20048;-46
2021/12/21 05:04:30;;;;;;;16.42;7.82;;;;;;;1.06;81.70;102603.44;5039256;28;20060;-47
2021/12/21 05:06:58;;;;;;;16.02;7.70;;;;;;;1.13;82.31;102603.59;5034577;28;20041;-50
2021/12/21 05:09:29;;;;;;;17.35;8.27;;;;;;;1.17;81.83;102603.13;5034771;28;20053;-44
2021/12/21 05:12:02;;;;;;;18.15;8.10;;;;;;;1.19;81.95;102589.53;5042856;28;20048;-48
2021/12/21 05:14:30;;;;;;;16.23;7.55;;;;;;;1.24;81.66;102592.56;5045749;28;20038;-48
2021/12/21 05:16:58;;;;;;;18.10;8.32;;;;;;;1.30;81.57;102599.13;5034775;28;20050;-49
2021/12/21 05:19:26;;;;;;;14.93;7.60;;;;;;;1.33;81.24;102598.84;5035555;28;20106;-48
2021/12/21 05:21:54;;;;;;;15.27;7.25;;;;;;;1.35;81.21;102604.84;5034356;28;20353;-49
2021/12/21 05:24:22;;;;;;;16.92;7.20;;;;;;;1.36;81.30;102614.63;5035363;28;20064;-47
2021/12/21 05:26:50;;;;;;;23.27;8.68;;;;;;;1.41;81.17;102609.59;5050475;28;20048;-48
2021/12/21 05:29:17;;;;;;;14.48;7.78;;;;;;;1.42;80.85;102611.25;5034157;28;20451;-49
2021/12/21 05:31:45;;;;;;;17.90;7.90;;;;;;;1.41;80.64;102607.75;5034065;28;20164;-47
2021/12/21 05:34:13;;;;;;;18.50;8.27;;;;;;;1.39;80.28;102604.38;5050556;28;20506;-44
2021/12/21 05:36:41;;;;;;;18.80;8.05;;;;;;;1.31;80.34;102607.03;5051482;28;20052;-49
2021/12/21 05:39:17;;;;;;;14.55;8.07;;;;;;;1.26;80.81;102610.22;5053662;28;20055;-49
2021/12/21 05:41:55;;;;;;;16.00;8.05;;;;;;;1.28;80.30;102610.88;5053804;28;20503;-49
2021/12/21 05:44:25;;;;;;;17.35;8.40;;;;;;;1.18;80.99;102610.19;5040269;28;20099;-51
2021/12/21 05:46:54;;;;;;;18.95;8.32;;;;;;;1.12;81.03;102621.56;5053463;28;20090;-51
2021/12/21 05:49:22;;;;;;;15.63;8.45;;;;;;;1.11;81.93;102617.22;5053438;28;20049;-47
2021/12/21 05:51:49;;;;;;;18.25;8.52;;;;;;;1.06;81.96;102619.53;5053694;28;20045;-47
2021/12/21 05:54:21;;;;;;;15.82;8.25;;;;;;;0.98;81.69;102620.31;5052305;28;20037;-48
2021/12/21 05:56:49;;;;;;;14.57;8.15;;;;;;;0.97;82.39;102620.50;5051764;28;20063;-46
2021/12/21 05:59:17;;;;;;;18.30;8.57;;;;;;;1.04;82.70;102621.53;5039185;28;20053;-49
2021/12/21 06:01:44;;;;;;;17.55;9.05;;;;;;;1.13;82.19;102614.34;5033825;28;20076;-49
2021/12/21 06:04:12;;;;;;;19.85;8.75;;;;;;;1.14;81.53;102622.25;5045753;28;20484;-48
2021/12/21 06:06:40;;;;;;;18.80;8.80;;;;;;;1.11;81.53;102617.22;5050472;28;20049;-51
2021/12/21 06:09:10;;;;;;;16.90;8.52;;;;;;;1.12;81.31;102613.50;5041008;28;20045;-49
2021/12/21 06:11:46;;;;;;;17.00;8.48;;;;;;;1.10;81.21;102612.81;5034400;28;20053;-50
2021/12/21 06:28:08;;;;;;;19.23;8.70;;;;;;;0.93;81.61;102619.13;5030404;28;20045;-49
2021/12/21 06:30:38;;;;;;;20.02;9.10;;;;;;;0.94;81.59;102616.28;5030260;28;20420;-49
2021/12/21 06:33:07;;;;;;;19.27;9.00;;;;;;;0.99;81.19;102615.81;5030460;28;20045;-47
2021/12/21 06:35:35;;;;;;;17.92;8.13;;;;;;;0.98;81.38;102616.78;5030354;28;20045;-49
2021/12/21 06:38:03;;;;;;;21.17;9.75;;;;;;;0.96;81.33;102613.41;5030228;28;20041;-49
2021/12/21 06:40:32;;;;;;;21.92;9.18;;;;;;;0.92;81.15;102622.81;5030490;28;20478;-48
2021/12/21 06:43:01;;;;;;;18.80;8.77;;;;;;;0.90;81.52;102608.72;5030276;28;20064;-48
2021/12/21 06:53:48;;;;;;;22.17;9.10;;;;;;;0.84;81.34;102621.78;5029840;28;20053;-50
2021/12/21 06:56:16;;;;;;;18.70;8.75;;;;;;;0.84;81.22;102615.53;5031102;28;20053;-49
2021/12/21 06:58:44;;;;;;;18.35;8.65;;;;;;;0.79;81.51;102616.00;5037313;28;20056;-48
2021/12/21 07:01:13;;;;;;;18.27;8.30;;;;;;;0.81;81.81;102605.13;5032444;28;20140;-46
2021/12/21 07:03:42;;;;;;;18.60;8.10;;;;;;;0.83;81.80;102609.34;5032525;28;20391;-46
2021/12/21 07:06:10;;;;;;;23.15;8.68;;;;;;;0.82;81.17;102612.19;5034198;28;20049;-46
2021/12/21 07:08:57;;;;;;;19.02;9.13;;;;;;;0.73;81.47;102618.50;5050016;28;20044;-47
2021/12/21 07:19:26;;;;;;;18.92;9.30;;;;;;;0.72;81.66;102622.19;5033282;28;20041;-43
2021/12/21 07:21:54;;;;;;;16.50;8.57;;;;;;;0.65;82.05;102622.00;5032022;28;20049;-49
2021/12/21 07:24:22;;;;;;;18.83;8.40;;;;;;;0.62;82.18;102627.66;5033255;28;20106;-49
2021/12/21 07:26:50;;;;;;;19.27;8.30;;;;;;;0.60;83.06;102629.63;5033319;28;20124;-49
2021/12/21 07:29:18;;;;;;;20.45;8.95;;;;;;;0.66;83.40;102629.03;5035752;28;20393;-49
2021/12/21 07:31:46;;;;;;;21.55;8.65;;;;;;;0.72;82.67;102623.03;5050506;28;20056;-50
2021/12/21 07:34:13;;;;;;;18.20;8.10;;;;;;;0.73;81.99;102624.72;5039874;28;20194;-47
2021/12/21 07:36:43;;;;;;;20.20;8.65;;;;;;;0.70;82.20;102629.53;5032019;28;20411;-48
2021/12/21 07:39:17;;;;;;;17.35;8.27;;;;;;;0.66;82.30;102633.56;5043628;28;20056;-48
2021/12/21 07:41:58;;;;;;;16.52;8.32;;;;;;;0.56;82.37;102628.28;5031724;28;20037;-47
2021/12/21 07:44:26;;;;;;;16.42;8.32;;;;;;;0.52;82.83;102643.84;5032149;28;20045;-47
2021/12/21 07:46:53;;;;;;;17.15;8.93;;;;;;;0.45;82.52;102642.78;5041984;28;20049;-48
2021/12/21 07:49:21;;;;;;;17.58;7.93;;;;;;;0.36;82.81;102644.56;5038090;28;20107;-46
2021/12/21 07:51:49;;;;;;;15.77;8.05;;;;;;;0.40;83.90;102643.25;5032907;28;20085;-50
2021/12/21 07:54:21;;;;;;;19.92;8.52;;;;;;;0.48;84.47;102647.00;5042961;28;20068;-47
2021/12/21 07:56:49;;;;;;;25.25;9.27;;;;;;;0.53;84.15;102642.88;5043836;28;20510;-47
2021/12/21 07:59:17;;;;;;;26.70;8.82;;;;;;;0.49;83.03;102643.31;5052074;28;20061;-48
2021/12/21 08:01:44;;;;;;;21.13;8.52;;;;;;;0.41;83.61;102646.78;5050437;28;20048;-49
2021/12/21 08:04:12;;;;;;;24.15;8.77;;;;;;;0.33;83.97;102647.56;5052071;28;20040;-48
2021/12/21 08:06:43;;;;;;;19.40;9.23;;;;;;;0.28;83.51;102652.53;5051746;28;20057;-47
2021/12/21 08:09:11;;;;;;;17.60;8.82;;;;;;;0.28;84.08;102663.25;5051483;28;20056;-49
2021/12/21 08:14:07;;;;;;;23.90;8.55;;;;;;;0.39;83.98;102654.16;5055477;28;20044;-51
2021/12/21 08:16:35;;;;;;;19.88;8.70;;;;;;;0.39;83.94;102654.97;5055488;28;20056;-47
2021/12/21 08:19:03;;;;;;;16.92;8.55;;;;;;;0.35;84.17;102653.59;5055630;28;20041;-47
2021/12/21 08:21:31;;;;;;;24.52;8.98;;;;;;;0.32;84.14;102645.03;5055897;28;20059;-47
2021/12/21 08:24:00;;;;;;;17.92;8.48;;;;;;;0.31;84.51;102654.91;5053234;28;20458;-49
2021/12/21 08:26:28;;;;;;;19.27;8.55;;;;;;;0.37;84.78;102651.63;5046698;28;20057;-49
2021/12/21 08:28:56;;;;;;;20.67;8.85;;;;;;;0.39;84.61;102646.09;5043232;28;20519;-49
2021/12/21 08:31:23;;;;;;;20.95;8.88;;;;;;;0.39;84.51;102648.78;5054589;28;20048;-50
2021/12/21 08:33:51;;;;;;;22.52;8.88;;;;;;;0.35;84.67;102652.75;5053286;28;20041;-46
2021/12/21 08:36:19;;;;;;;23.15;8.80;;;;;;;0.36;84.82;102652.63;5038636;28;20049;-50
2021/12/21 08:38:49;;;;;;;17.13;8.85;;;;;;;0.36;84.77;102651.75;5042314;28;20052;-47
2021/12/21 08:41:17;;;;;;;21.20;9.32;;;;;;;0.35;84.79;102661.66;5054859;28;20048;-49
2021/12/21 08:43:44;;;;;;;17.23;8.90;;;;;;;0.39;85.63;102654.16;5054947;28;20040;-48
2021/12/21 08:46:12;;;;;;;18.02;8.52;;;;;;;0.49;85.52;102654.88;5046102;28;20049;-47
2021/12/21 08:48:40;;;;;;;19.05;9.52;;;;;;;0.54;85.05;102647.22;5036082;28;20041;-49
2021/12/21 08:51:07;;;;;;;17.25;9.35;;;;;;;0.60;84.93;102654.66;5034738;28;20514;-49
2021/12/21 08:53:38;;;;;;;22.77;9.63;;;;;;;0.59;84.73;102660.16;5035405;28;20041;-45
2021/12/21 08:56:05;;;;;;;20.08;9.45;;;;;;;0.62;85.07;102667.88;5034592;28;20053;-48
2021/12/21 08:58:33;;;;;;;18.70;9.57;;;;;;;0.70;85.43;102662.59;5044627;28;20051;-49
2021/12/21 09:01:02;;;;;;;19.85;10.13;;;;;;;0.76;85.06;102661.94;5038719;28;20041;-48
2021/12/21 09:03:30;;;;;;;18.23;9.45;;;;;;;0.78;84.58;102662.63;5034591;28;20129;-49
2021/12/21 09:05:58;;;;;;;17.35;9.23;;;;;;;0.76;84.50;102669.16;5036699;28;20030;-48
2021/12/21 09:08:25;;;;;;;21.98;10.35;;;;;;;0.73;84.43;102669.50;5054084;28;20044;-47
2021/12/21 09:10:53;;;;;;;22.63;9.77;;;;;;;0.72;84.99;102671.34;5049504;28;20045;-47
2021/12/21 09:13:21;;;;;;;22.30;10.32;;;;;;;0.73;85.13;102666.81;5054289;28;20041;-46
2021/12/21 09:15:49;;;;;;;20.90;9.55;;;;;;;0.80;85.22;102663.31;5043535;28;20049;-46
2021/12/21 09:18:16;;;;;;;20.23;9.60;;;;;;;0.93;85.60;102668.25;5034693;28;20046;-47
2021/12/21 09:20:44;;;;;;;21.10;10.32;;;;;;;0.98;85.08;102671.31;5034139;28;20139;-50
2021/12/21 09:23:12;;;;;;;19.73;9.95;;;;;;;1.01;84.97;102673.69;5034223;28;20091;-49
2021/12/21 09:25:40;;;;;;;23.35;9.90;;;;;;;1.04;84.65;102669.84;5037852;28;20454;-48
2021/12/21 09:28:08;;;;;;;20.88;10.30;;;;;;;1.02;84.60;102659.25;5036816;28;20038;-49
2021/12/21 09:30:35;;;;;;;24.75;10.73;;;;;;;0.97;84.95;102672.31;5053903;28;20102;-49
2021/12/21 09:33:03;;;;;;;21.35;10.30;;;;;;;0.95;84.91;102670.78;5037279;28;20041;-48
2021/12/21 09:35:31;;;;;;;22.48;9.93;;;;;;;0.99;84.98;102662.28;5047613;28;20045;-52
2021/12/21 09:37:59;;;;;;;22.95;10.43;;;;;;;1.05;84.99;102664.31;5053477;28;20041;-51
2021/12/21 09:40:28;;;;;;;21.52;10.55;;;;;;;1.11;84.68;102667.34;5052696;28;20049;-49
2021/12/21 09:42:57;;;;;;;21.40;10.88;;;;;;;1.11;84.38;102660.16;5054258;28;20041;-48
2021/12/21 09:45:25;;;;;;;22.15;10.65;;;;;;;1.13;84.47;102663.53;5052377;28;20060;-49
2021/12/21 09:47:53;;;;;;;24.40;11.32;;;;;;;1.12;84.53;102667.19;5051714;28;20040;-47
2021/12/21 09:50:22;;;;;;;22.02;10.85;;;;;;;1.11;84.46;102657.47;5038050;28;20046;-47
2021/12/21 09:52:50;;;;;;;24.95;10.88;;;;;;;1.13;84.32;102657.28;5038343;28;20045;-48
2021/12/21 09:55:20;;;;;;;19.08;10.35;;;;;;;1.16;84.61;102649.78;5052397;28;20397;-48
2021/12/21 09:57:49;;;;;;;22.60;11.13;;;;;;;1.22;84.75;102651.81;5047370;28;20045;-46
2021/12/21 10:00:23;;;;;;;20.05;10.50;;;;;;;1.28;84.57;102658.41;5047060;28;20161;-48
2021/12/21 10:02:52;;;;;;;21.30;10.00;;;;;;;1.33;84.43;102649.84;5041476;28;20041;-49
2021/12/21 10:05:21;;;;;;;24.08;10.90;;;;;;;1.36;83.95;102657.56;5053261;28;20045;-48
2021/12/21 10:08:00;;;;;;;24.33;12.10;;;;;;;1.33;84.04;102653.38;5047786;28;20048;-48
2021/12/21 10:10:33;;;;;;;20.50;10.27;;;;;;;1.27;84.04;102657.56;5035188;28;20041;-46
2021/12/21 10:13:19;;;;;;;21.42;9.85;;;;;;;1.25;84.45;102654.19;5033479;28;20060;-47
2021/12/21 10:15:49;;;;;;;22.67;11.75;;;;;;;1.17;84.75;102647.94;5033524;28;20050;-48
2021/12/21 10:18:31;;;;;;;24.95;10.90;;;;;;;1.15;85.77;102642.72;5032929;28;20045;-47
2021/12/21 10:21:00;;;;;;;21.77;10.73;;;;;;;1.20;85.82;102629.66;5034133;28;20478;-50
2021/12/21 10:23:34;;;;;;;30.25;10.90;;;;;;;1.27;85.74;102625.34;5032887;28;20037;-47
2021/12/21 10:26:05;;;;;;;18.98;10.27;;;;;;;1.35;85.53;102618.28;5033773;28;20053;-47
2021/12/21 10:28:49;;;;;;;23.83;11.38;;;;;;;1.38;85.16;102617.97;5053189;28;20049;-47
2021/12/21 10:31:29;;;;;;;19.60;11.38;;;;;;;1.38;84.88;102623.34;5051392;28;20045;-45
2021/12/21 10:34:01;;;;;;;27.38;12.80;;;;;;;1.44;85.63;102622.69;5051824;28;20049;-48
2021/12/21 10:36:30;;;;;;;25.92;11.80;;;;;;;1.48;85.57;102616.81;5051758;28;20041;-48
2021/12/21 10:39:00;;;;;;;20.63;10.07;;;;;;;1.55;85.22;102614.31;5045695;28;20048;-48
2021/12/21 10:41:40;;;;;;;22.65;10.55;;;;;;;1.62;84.76;102618.03;5033760;28;20042;-47
2021/12/21 10:44:11;;;;;;;24.17;10.88;;;;;;;1.62;83.35;102631.47;5032988;28;20045;-49
2021/12/21 10:46:41;;;;;;;20.13;8.95;;;;;;;1.63;83.46;102630.47;5041380;28;20116;-46
2021/12/21 10:49:31;;;;;;;21.85;10.52;;;;;;;1.67;81.82;102631.81;5035939;28;20045;-46
2021/12/21 10:52:04;;;;;;;20.73;9.88;;;;;;;1.67;82.12;102631.00;5033650;28;20156;-48
2021/12/21 10:54:44;;;;;;;22.77;10.45;;;;;;;1.68;81.69;102628.16;5050239;28;20044;-49
2021/12/21 10:57:23;;;;;;;22.40;10.02;;;;;;;1.72;81.49;102627.81;5036297;28;20114;-50
2021/12/21 10:59:53;;;;;;;21.15;10.18;;;;;;;1.75;80.80;102630.16;5049504;28;20060;-47
2021/12/21 11:02:28;;;;;;;22.30;9.65;;;;;;;1.78;80.40;102624.44;5052650;28;20052;-46
2021/12/21 11:05:18;;;;;;;21.45;9.02;;;;;;;1.82;80.43;102615.06;5052471;28;20049;-47
2021/12/21 11:10:36;;;;;;;22.38;10.90;;;;;;;1.90;81.34;102613.22;5052214;28;20166;-45
2021/12/21 11:13:10;;;;;;;19.85;9.45;;;;;;;1.86;80.58;102616.41;5052355;28;20499;-45
2021/12/21 11:15:52;;;;;;;20.63;10.13;;;;;;;1.84;80.49;102613.88;5052710;28;20480;-45
2021/12/21 11:18:22;;;;;;;22.23;9.65;;;;;;;1.85;80.82;102609.34;5045839;28;20117;-47
2021/12/21 11:20:53;;;;;;;20.25;9.63;;;;;;;1.83;81.11;102601.47;5052542;28;20098;-46
2021/12/21 11:23:23;;;;;;;17.85;9.30;;;;;;;1.85;81.28;102598.59;5052142;28;20057;-44
2021/12/21 11:25:56;;;;;;;23.48;9.55;;;;;;;1.89;81.08;102590.03;5045199;28;20099;-45
2021/12/21 11:28:35;;;;;;;21.77;9.98;;;;;;;1.95;81.38;102579.63;5037505;28;20037;-50
2021/12/21 11:31:07;;;;;;;21.35;9.10;;;;;;;2.01;81.08;102577.09;5052096;28;20506;-47
2021/12/21 11:33:43;;;;;;;20.85;9.52;;;;;;;2.07;81.23;102570.22;5053093;28;20041;-45
2021/12/21 11:39:02;;;;;;;22.30;9.55;;;;;;;2.11;80.76;102561.63;5050507;28;20414;-49
2021/12/21 11:41:31;;;;;;;27.02;9.52;;;;;;;2.15;81.98;102558.63;5050608;28;20416;-48
2021/12/21 11:44:22;;;;;;;22.23;9.40;;;;;;;2.20;82.20;102553.56;5050869;28;20099;-48
2021/12/21 11:46:54;;;;;;;20.40;10.27;;;;;;;2.19;81.36;102560.81;5056037;28;20155;-51
2021/12/21 11:49:41;;;;;;;26.20;9.38;;;;;;;2.15;81.05;102554.09;5053049;28;20052;-48
2021/12/21 11:52:15;;;;;;;21.60;9.30;;;;;;;2.17;81.48;102559.31;5055810;28;20040;-50
2021/12/21 11:54:57;;;;;;;17.20;8.43;;;;;;;2.23;82.31;102566.69;5055692;28;20041;-48
2021/12/21 11:57:55;;;;;;;14.43;7.88;;;;;;;2.30;81.44;102559.59;5055918;28;20063;-44
2021/12/21 12:00:26;;;;;;;19.00;8.82;;;;;;;2.34;81.19;102560.97;5015218;28;20061;-49
2021/12/21 12:02:57;;;;;;;19.52;8.88;;;;;;;2.35;80.36;102550.00;5014245;28;20116;-45
2021/12/21 12:05:28;;;;;;;21.05;8.25;;;;;;;2.34;79.98;102550.19;4997523;28;20054;-50
2021/12/21 12:08:05;;;;;;;17.17;7.97;;;;;;;2.38;80.52;102550.69;5014184;28;20092;-47
2021/12/21 12:10:37;;;;;;;18.35;8.70;;;;;;;2.41;80.06;102547.66;4998719;28;20045;-47
2021/12/21 12:13:31;;;;;;;17.23;7.45;;;;;;;2.43;80.13;102551.88;5013874;28;20060;-44
2021/12/21 12:16:05;;;;;;;14.93;7.35;;;;;;;2.45;79.68;102547.13;5013875;28;20054;-50
2021/12/21 12:18:36;;;;;;;15.65;7.07;;;;;;;2.47;78.85;102539.72;5013603;28;20050;-48
2021/12/21 12:21:24;;;;;;;14.18;7.28;;;;;;;2.48;78.39;102536.03;5014336;28;20050;-46
2021/12/21 12:23:55;;;;;;;14.77;7.43;;;;;;;2.53;78.31;102538.22;5012998;28;20449;-46
2021/12/21 12:26:41;;;;;;;13.38;7.35;;;;;;;2.59;78.80;102539.38;5013595;28;20091;-48
2021/12/21 12:29:14;;;;;;;14.27;7.60;;;;;;;2.58;77.75;102541.22;4996589;28;20038;-49
2021/12/21 12:32:01;;;;;;;15.40;8.63;;;;;;;2.59;77.51;102542.06;5013959;28;20048;-48
2021/12/21 12:34:32;;;;;;;16.20;8.20;;;;;;;2.58;77.49;102538.53;5013102;28;20046;-47
2021/12/21 12:37:00;;;;;;;19.67;8.82;;;;;;;2.59;78.16;102540.22;5025766;28;20057;-46
2021/12/21 12:39:37;;;;;;;21.13;8.73;;;;;;;2.60;78.44;102543.72;5035813;28;20045;-48
2021/12/21 12:42:07;;;;;;;17.55;8.40;;;;;;;2.63;78.07;102529.97;5034906;28;20033;-46
2021/12/21 12:44:37;;;;;;;16.90;8.68;;;;;;;2.66;77.99;102522.34;5034854;28;20057;-47
2021/12/21 12:47:09;;;;;;;16.73;8.32;;;;;;;2.69;78.52;102521.16;5034699;28;20053;-48
2021/12/21 12:49:42;;;;;;;15.05;8.25;;;;;;;2.71;78.49;102513.75;5034916;28;20523;-50
2021/12/21 12:52:19;;;;;;;17.35;8.32;;;;;;;2.72;78.73;102502.84;5053396;28;20037;-48